createdAt,value
2023-05-14T00:02:17.523Z,55.10
2023-05-14T00:07:21.675Z,54.90
2023-05-14T00:12:30.524Z,54.90
2023-05-14T00:17:34.592Z,55.00
2023-05-14T00:22:39.866Z,55.10
2023-05-14T00:27:43.886Z,55.20
2023-05-14T00:32:47.996Z,55.10
2023-05-14T00:37:52.035Z,55.30
2023-05-14T00:42:57.296Z,55.50
2023-05-14T00:48:01.267Z,55.50
2023-05-14T00:53:10.759Z,55.00
2023-05-14T00:58:15.088Z,55.50
2023-05-14T01:03:23.638Z,55.70
2023-05-14T01:08:42.525Z,55.60
2023-05-14T01:14:07.646Z,55.70
2023-05-14T01:19:27.729Z,55.70
2023-05-14T01:24:31.860Z,55.60
2023-05-14T01:29:39.365Z,55.60
2023-05-14T01:34:47.859Z,55.60
2023-05-14T01:39:52.942Z,55.50
2023-05-14T01:44:57.312Z,55.50
2023-05-14T01:50:01.355Z,55.50
2023-05-14T01:55:06.700Z,55.90
2023-05-14T02:00:11.891Z,55.60
2023-05-14T02:05:19.335Z,55.70
2023-05-14T02:10:23.843Z,55.80
2023-05-14T02:15:29.180Z,55.60
2023-05-14T02:20:33.096Z,55.60
2023-05-14T02:25:38.165Z,55.60
2023-05-14T02:30:42.287Z,55.60
2023-05-14T02:35:46.528Z,55.90
2023-05-14T02:40:50.795Z,55.60
2023-05-14T02:45:54.918Z,55.70
2023-05-14T02:50:59.238Z,55.70
2023-05-14T02:56:03.388Z,55.70
2023-05-14T03:01:07.818Z,55.70
2023-05-14T03:06:12.471Z,55.70
2023-05-14T03:11:16.418Z,55.70
2023-05-14T03:16:20.501Z,55.70
2023-05-14T03:21:25.489Z,55.80
2023-05-14T03:26:29.419Z,55.70
2023-05-14T03:31:33.550Z,55.80
2023-05-14T03:36:39.375Z,55.60
2023-05-14T03:41:43.867Z,55.60
2023-05-14T03:46:48.408Z,55.50
2023-05-14T03:51:52.856Z,55.90
2023-05-14T03:56:57.108Z,56.40
2023-05-14T04:02:01.444Z,55.70
2023-05-14T04:07:05.557Z,55.70
2023-05-14T04:12:10.223Z,56.30
2023-05-14T04:17:14.464Z,56.00
2023-05-14T04:22:18.901Z,56.00
2023-05-14T04:27:22.933Z,55.90
2023-05-14T04:32:27.390Z,55.90
2023-05-14T04:37:32.250Z,55.90
2023-05-14T04:42:36.246Z,55.80
2023-05-14T04:47:40.442Z,55.90
2023-05-14T04:52:44.731Z,55.90
2023-05-14T04:57:49.778Z,55.90
2023-05-14T05:02:53.889Z,55.80
2023-05-14T05:07:57.942Z,56.00
2023-05-14T05:13:02.294Z,55.70
2023-05-14T05:18:06.758Z,55.80
2023-05-14T05:23:10.871Z,55.80
2023-05-14T05:28:15.093Z,56.40
2023-05-14T05:33:19.652Z,55.90
2023-05-14T05:38:23.570Z,55.80
2023-05-14T05:43:29.034Z,55.80
2023-05-14T05:48:33.070Z,55.80
2023-05-14T05:53:37.098Z,56.10
2023-05-14T05:58:41.445Z,55.60
2023-05-14T06:03:47.740Z,55.40
2023-05-14T06:08:52.681Z,55.80
2023-05-14T06:13:56.915Z,55.40
2023-05-14T06:19:00.880Z,55.50
2023-05-14T06:24:05.702Z,55.90
2023-05-14T06:29:09.925Z,55.40
2023-05-14T06:34:14.087Z,55.50
2023-05-14T06:39:18.236Z,55.50
2023-05-14T06:44:22.356Z,55.50
2023-05-14T06:49:26.907Z,55.90
2023-05-14T06:54:31.530Z,55.90
2023-05-14T06:59:36.383Z,55.40
2023-05-14T07:04:40.503Z,55.40
2023-05-14T07:09:44.749Z,55.30
2023-05-14T07:14:48.881Z,55.30
2023-05-14T07:19:52.920Z,55.10
2023-05-14T07:24:56.937Z,55.50
2023-05-14T07:30:01.195Z,55.50
2023-05-14T07:35:06.770Z,55.40
2023-05-14T07:40:11.529Z,55.50
2023-05-14T07:45:15.637Z,55.50
2023-05-14T07:50:20.195Z,55.50
2023-05-14T07:55:24.110Z,55.50
2023-05-14T08:00:28.250Z,55.50
2023-05-14T08:05:33.410Z,55.30
2023-05-14T08:10:37.578Z,55.40
2023-05-14T08:15:41.566Z,55.20
2023-05-14T08:20:45.708Z,54.90
2023-05-14T08:25:49.977Z,56.20
2023-05-14T08:30:54.145Z,56.20
2023-05-14T08:36:00.884Z,56.60
2023-05-14T08:41:06.649Z,56.00
2023-05-14T08:46:13.789Z,56.30
2023-05-14T08:51:25.327Z,56.50
2023-05-14T08:56:35.593Z,56.80
2023-05-14T09:01:50.383Z,57.30
2023-05-14T09:06:56.041Z,59.50
2023-05-14T09:12:01.751Z,62.60
2023-05-14T09:17:05.883Z,60.00
2023-05-14T09:22:13.338Z,59.70
2023-05-14T09:27:22.996Z,59.20
2023-05-14T09:32:28.050Z,58.70
2023-05-14T09:37:37.181Z,58.60
2023-05-14T09:42:42.207Z,58.70
2023-05-14T09:47:46.424Z,58.30
2023-05-14T09:52:50.898Z,58.50
2023-05-14T09:57:54.824Z,58.10
2023-05-14T10:02:59.582Z,57.90
2023-05-14T10:08:14.668Z,57.50
2023-05-14T10:13:23.348Z,57.20
2023-05-14T10:18:31.061Z,57.50
2023-05-14T10:23:38.309Z,57.30
2023-05-14T10:28:42.922Z,56.80
2023-05-14T10:33:51.763Z,57.20
2023-05-14T10:38:59.103Z,57.30
2023-05-14T10:44:10.624Z,56.50
2023-05-14T10:49:14.650Z,56.30
2023-05-14T10:54:19.693Z,56.30
2023-05-14T10:59:28.822Z,56.10
2023-05-14T11:04:33.400Z,56.20
2023-05-14T11:09:38.870Z,56.00
2023-05-14T11:14:43.239Z,55.80
2023-05-14T11:19:48.362Z,55.50
2023-05-14T11:24:54.036Z,55.10
2023-05-14T11:29:58.628Z,55.10
2023-05-14T11:35:02.988Z,55.10
2023-05-14T11:40:12.688Z,57.40
2023-05-14T11:45:29.150Z,56.60
2023-05-14T11:50:37.093Z,55.60
2023-05-14T11:55:41.153Z,56.40
2023-05-14T12:00:46.195Z,56.00
2023-05-14T12:06:01.522Z,55.50
2023-05-14T12:11:05.652Z,55.60
2023-05-14T12:16:09.840Z,55.80
2023-05-14T12:21:14.016Z,55.50
2023-05-14T12:26:17.940Z,55.20
2023-05-14T12:31:33.808Z,55.10
2023-05-14T12:36:37.771Z,54.90
2023-05-14T12:41:41.911Z,54.70
2023-05-14T12:46:46.439Z,55.10
2023-05-14T12:51:52.826Z,54.70
2023-05-14T12:57:04.976Z,54.50
2023-05-14T13:02:09.608Z,54.00
2023-05-14T13:07:13.736Z,54.20
2023-05-14T13:12:17.769Z,53.90
2023-05-14T13:17:22.043Z,54.30
2023-05-14T13:22:25.940Z,54.40
2023-05-14T13:27:31.102Z,53.90
2023-05-14T13:32:35.294Z,54.50
2023-05-14T13:37:39.844Z,55.30
2023-05-14T13:42:43.716Z,54.20
2023-05-14T13:47:48.774Z,53.50
2023-05-14T13:52:53.441Z,54.00
2023-05-14T13:57:57.848Z,53.80
2023-05-14T14:03:02.010Z,54.00
2023-05-14T14:08:22.083Z,53.90
2023-05-14T14:13:28.372Z,53.70
2023-05-14T14:18:32.945Z,53.70
2023-05-14T14:23:36.939Z,53.10
2023-05-14T14:28:40.987Z,53.50
2023-05-14T14:33:44.904Z,53.20
2023-05-14T14:38:48.842Z,53.50
2023-05-14T14:43:53.314Z,53.40
2023-05-14T14:48:57.113Z,53.60
2023-05-14T14:54:01.035Z,55.30
2023-05-14T14:59:05.089Z,54.80
2023-05-14T15:04:09.319Z,54.50
2023-05-14T15:09:13.476Z,49.70
2023-05-14T15:14:17.557Z,46.50
2023-05-14T15:19:21.634Z,46.80
2023-05-14T15:24:26.583Z,48.70
2023-05-14T15:29:30.719Z,47.90
2023-05-14T15:34:35.175Z,48.20
2023-05-14T15:39:39.199Z,48.30
2023-05-14T15:44:43.324Z,48.00
2023-05-14T15:49:47.767Z,48.00
2023-05-14T15:54:51.789Z,47.00
2023-05-14T15:59:57.291Z,45.10
2023-05-14T16:05:02.148Z,45.10
2023-05-14T16:10:07.169Z,46.10
2023-05-14T16:15:11.901Z,46.40
2023-05-14T16:20:15.941Z,46.80
2023-05-14T16:25:19.773Z,47.00
2023-05-14T16:30:25.659Z,47.40
2023-05-14T16:35:31.105Z,47.90
2023-05-14T16:40:35.045Z,48.10
2023-05-14T16:45:40.670Z,48.70
2023-05-14T16:50:44.940Z,48.20
2023-05-14T16:55:49.179Z,49.40
2023-05-14T17:00:53.308Z,50.00
2023-05-14T17:05:58.408Z,50.20
2023-05-14T17:11:06.138Z,50.90
2023-05-14T17:16:09.072Z,50.40
2023-05-14T17:21:13.429Z,50.40
2023-05-14T17:26:18.080Z,50.90
2023-05-14T17:31:22.879Z,50.40
2023-05-14T17:36:28.781Z,50.50
2023-05-14T17:41:32.841Z,50.40
2023-05-14T17:46:37.528Z,50.50
2023-05-14T17:51:42.439Z,50.70
2023-05-14T17:56:48.625Z,52.20
2023-05-14T18:01:53.087Z,52.10
2023-05-14T18:06:57.828Z,51.80
2023-05-14T18:12:01.753Z,51.90
2023-05-14T18:17:08.418Z,54.30
2023-05-14T18:22:12.691Z,53.10
2023-05-14T18:27:17.030Z,53.40
2023-05-14T18:32:22.292Z,53.20
2023-05-14T18:37:27.144Z,53.10
2023-05-14T18:42:32.671Z,52.80
2023-05-14T18:47:37.077Z,53.10
2023-05-14T18:52:42.822Z,52.60
2023-05-14T18:57:47.083Z,52.90
2023-05-14T19:02:53.309Z,52.80
2023-05-14T19:07:59.392Z,52.70
2023-05-14T19:13:04.604Z,52.90
2023-05-14T19:18:09.024Z,52.80
2023-05-14T19:23:14.365Z,53.10
2023-05-14T19:28:20.230Z,53.70
2023-05-14T19:33:26.784Z,53.20
2023-05-14T19:38:33.531Z,57.30
2023-05-14T19:43:38.450Z,55.10
2023-05-14T19:48:42.724Z,54.50
2023-05-14T19:53:48.921Z,55.10
2023-05-14T19:58:53.469Z,54.70
2023-05-14T20:03:57.897Z,54.90
2023-05-14T20:09:02.442Z,54.30
2023-05-14T20:14:06.780Z,53.80
2023-05-14T20:19:12.135Z,54.00
2023-05-14T20:24:17.097Z,54.10
2023-05-14T20:29:21.333Z,54.30
2023-05-14T20:34:25.460Z,54.70
2023-05-14T20:39:29.300Z,54.00
2023-05-14T20:44:35.170Z,54.40
2023-05-14T20:49:38.955Z,55.40
2023-05-14T20:54:43.698Z,58.80
2023-05-14T20:59:48.097Z,58.00
2023-05-14T21:04:52.561Z,57.40
2023-05-14T21:09:56.438Z,56.90
2023-05-14T21:15:00.893Z,58.30
2023-05-14T21:20:05.345Z,59.30
2023-05-14T21:25:09.800Z,59.00
2023-05-14T21:30:14.441Z,58.50
2023-05-14T21:35:19.436Z,58.70
2023-05-14T21:40:23.412Z,58.40
2023-05-14T21:45:28.050Z,58.90
2023-05-14T21:50:32.609Z,58.60
2023-05-14T21:55:36.755Z,58.50
2023-05-14T22:00:40.972Z,58.30
2023-05-14T22:05:45.107Z,58.30
2023-05-14T22:10:49.245Z,58.50
2023-05-14T22:16:01.365Z,58.60
2023-05-14T22:21:13.502Z,58.50
2023-05-14T22:26:18.042Z,58.30
2023-05-14T22:31:22.337Z,58.30
2023-05-14T22:36:26.405Z,58.00
2023-05-14T22:41:31.271Z,58.10
2023-05-14T22:46:35.853Z,57.90
2023-05-14T22:51:40.656Z,57.60
2023-05-14T22:56:44.677Z,57.80
2023-05-14T23:01:48.743Z,57.30
2023-05-14T23:06:52.966Z,57.90
2023-05-14T23:11:57.282Z,57.60
2023-05-14T23:17:01.318Z,57.60
2023-05-14T23:22:05.764Z,57.30
2023-05-14T23:27:11.244Z,57.50
2023-05-14T23:32:15.429Z,57.60
2023-05-14T23:37:19.749Z,57.70
2023-05-14T23:42:25.061Z,57.50
2023-05-14T23:47:29.432Z,57.50
2023-05-14T23:52:33.832Z,57.50
2023-05-14T23:57:38.198Z,57.60
